sensor_id;sensor_type;location;lat;lon;timestamp;P1;durP1;ratioP1;P2;durP2;ratioP2
29210;SDS011;16250;49.932;10.980;2024-01-07T00:01:48;25.73;;;20.17;;
29210;SDS011;16250;49.932;10.980;2024-01-07T00:04:14;22.83;;;20.40;;
29210;SDS011;16250;49.932;10.980;2024-01-07T00:06:40;26.00;;;20.88;;
29210;SDS011;16250;49.932;10.980;2024-01-07T00:09:05;24.92;;;19.98;;
29210;SDS011;16250;49.932;10.980;2024-01-07T00:11:31;25.08;;;19.10;;
29210;SDS011;16250;49.932;10.980;2024-01-07T00:13:56;21.77;;;19.33;;
29210;SDS011;16250;49.932;10.980;2024-01-07T00:16:21;23.90;;;20.50;;
29210;SDS011;16250;49.932;10.980;2024-01-07T00:18:47;23.95;;;19.45;;
29210;SDS011;16250;49.932;10.980;2024-01-07T00:21:12;25.38;;;20.13;;
29210;SDS011;16250;49.932;10.980;2024-01-07T00:23:38;23.33;;;20.33;;
29210;SDS011;16250;49.932;10.980;2024-01-07T00:26:03;26.80;;;21.02;;
29210;SDS011;16250;49.932;10.980;2024-01-07T00:28:29;26.20;;;20.00;;
29210;SDS011;16250;49.932;10.980;2024-01-07T00:30:54;22.30;;;19.58;;
29210;SDS011;16250;49.932;10.980;2024-01-07T00:33:19;22.42;;;18.58;;
29210;SDS011;16250;49.932;10.980;2024-01-07T00:35:45;21.35;;;16.98;;
29210;SDS011;16250;49.932;10.980;2024-01-07T00:38:10;16.67;;;14.88;;
29210;SDS011;16250;49.932;10.980;2024-01-07T00:40:36;15.23;;;13.30;;
29210;SDS011;16250;49.932;10.980;2024-01-07T00:43:01;16.17;;;13.90;;
29210;SDS011;16250;49.932;10.980;2024-01-07T00:45:26;14.18;;;12.68;;
29210;SDS011;16250;49.932;10.980;2024-01-07T00:47:52;13.88;;;12.32;;
29210;SDS011;16250;49.932;10.980;2024-01-07T00:50:19;12.43;;;10.55;;
29210;SDS011;16250;49.932;10.980;2024-01-07T00:52:45;10.85;;;9.75;;
29210;SDS011;16250;49.932;10.980;2024-01-07T00:55:11;10.85;;;9.68;;
29210;SDS011;16250;49.932;10.980;2024-01-07T00:57:36;10.75;;;9.23;;
29210;SDS011;16250;49.932;10.980;2024-01-07T01:00:05;9.02;;;8.10;;
29210;SDS011;16250;49.932;10.980;2024-01-07T01:02:31;9.13;;;8.07;;
29210;SDS011;16250;49.932;10.980;2024-01-07T01:04:56;12.55;;;9.32;;
29210;SDS011;16250;49.932;10.980;2024-01-07T01:07:22;10.10;;;9.02;;
29210;SDS011;16250;49.932;10.980;2024-01-07T01:09:47;11.93;;;9.55;;
29210;SDS011;16250;49.932;10.980;2024-01-07T01:12:13;13.32;;;11.00;;
29210;SDS011;16250;49.932;10.980;2024-01-07T01:14:38;12.95;;;10.95;;
29210;SDS011;16250;49.932;10.980;2024-01-07T01:17:03;13.13;;;10.65;;
29210;SDS011;16250;49.932;10.980;2024-01-07T01:19:29;13.90;;;11.52;;
29210;SDS011;16250;49.932;10.980;2024-01-07T01:21:54;13.88;;;11.68;;
29210;SDS011;16250;49.932;10.980;2024-01-07T01:24:20;14.18;;;11.52;;
29210;SDS011;16250;49.932;10.980;2024-01-07T01:26:45;12.45;;;10.55;;
29210;SDS011;16250;49.932;10.980;2024-01-07T01:29:10;12.48;;;10.55;;
29210;SDS011;16250;49.932;10.980;2024-01-07T01:31:36;11.48;;;8.88;;
29210;SDS011;16250;49.932;10.980;2024-01-07T01:34:01;12.38;;;9.75;;
29210;SDS011;16250;49.932;10.980;2024-01-07T01:36:27;10.13;;;9.13;;
29210;SDS011;16250;49.932;10.980;2024-01-07T01:38:52;11.45;;;9.38;;
29210;SDS011;16250;49.932;10.980;2024-01-07T01:41:17;9.93;;;7.85;;
29210;SDS011;16250;49.932;10.980;2024-01-07T01:43:43;10.93;;;8.88;;
29210;SDS011;16250;49.932;10.980;2024-01-07T01:46:08;12.60;;;9.85;;
29210;SDS011;16250;49.932;10.980;2024-01-07T01:48:35;10.80;;;8.10;;
29210;SDS011;16250;49.932;10.980;2024-01-07T01:51:00;11.02;;;8.80;;
29210;SDS011;16250;49.932;10.980;2024-01-07T01:53:26;11.27;;;10.05;;
29210;SDS011;16250;49.932;10.980;2024-01-07T01:55:52;10.35;;;9.07;;
29210;SDS011;16250;49.932;10.980;2024-01-07T01:58:19;12.32;;;9.25;;
29210;SDS011;16250;49.932;10.980;2024-01-07T02:00:45;13.00;;;10.57;;
29210;SDS011;16250;49.932;10.980;2024-01-07T02:03:11;11.07;;;9.77;;
29210;SDS011;16250;49.932;10.980;2024-01-07T02:05:36;11.00;;;9.00;;
29210;SDS011;16250;49.932;10.980;2024-01-07T02:08:01;10.20;;;9.10;;
29210;SDS011;16250;49.932;10.980;2024-01-07T02:10:28;10.05;;;8.90;;
29210;SDS011;16250;49.932;10.980;2024-01-07T02:12:59;11.63;;;9.45;;
29210;SDS011;16250;49.932;10.980;2024-01-07T02:15:25;11.95;;;10.40;;
29210;SDS011;16250;49.932;10.980;2024-01-07T02:17:50;13.98;;;10.82;;
29210;SDS011;16250;49.932;10.980;2024-01-07T02:20:16;13.55;;;11.10;;
29210;SDS011;16250;49.932;10.980;2024-01-07T02:22:41;12.82;;;10.88;;
29210;SDS011;16250;49.932;10.980;2024-01-07T02:25:06;11.20;;;9.68;;
29210;SDS011;16250;49.932;10.980;2024-01-07T02:27:33;11.63;;;10.02;;
29210;SDS011;16250;49.932;10.980;2024-01-07T02:29:59;12.73;;;10.05;;
29210;SDS011;16250;49.932;10.980;2024-01-07T02:32:24;12.18;;;10.13;;
29210;SDS011;16250;49.932;10.980;2024-01-07T02:34:49;12.02;;;10.10;;
29210;SDS011;16250;49.932;10.980;2024-01-07T02:37:15;12.77;;;11.27;;
29210;SDS011;16250;49.932;10.980;2024-01-07T02:39:40;14.40;;;11.60;;
29210;SDS011;16250;49.932;10.980;2024-01-07T02:42:05;12.65;;;11.15;;
29210;SDS011;16250;49.932;10.980;2024-01-07T02:44:31;13.65;;;11.60;;
29210;SDS011;16250;49.932;10.980;2024-01-07T02:46:56;13.00;;;10.73;;
29210;SDS011;16250;49.932;10.980;2024-01-07T02:49:22;12.05;;;10.75;;
29210;SDS011;16250;49.932;10.980;2024-01-07T02:51:47;13.35;;;11.30;;
29210;SDS011;16250;49.932;10.980;2024-01-07T02:54:15;13.57;;;11.20;;
29210;SDS011;16250;49.932;10.980;2024-01-07T02:56:40;14.38;;;11.85;;
29210;SDS011;16250;49.932;10.980;2024-01-07T02:59:06;14.65;;;12.23;;
29210;SDS011;16250;49.932;10.980;2024-01-07T03:01:31;12.98;;;11.48;;
29210;SDS011;16250;49.932;10.980;2024-01-07T03:03:57;15.35;;;12.45;;
29210;SDS011;16250;49.932;10.980;2024-01-07T03:06:25;13.75;;;11.95;;
29210;SDS011;16250;49.932;10.980;2024-01-07T03:08:51;15.95;;;12.60;;
29210;SDS011;16250;49.932;10.980;2024-01-07T03:11:17;14.90;;;12.23;;
29210;SDS011;16250;49.932;10.980;2024-01-07T03:13:42;16.30;;;13.10;;
29210;SDS011;16250;49.932;10.980;2024-01-07T03:16:07;15.48;;;11.93;;
29210;SDS011;16250;49.932;10.980;2024-01-07T03:18:33;15.52;;;11.98;;
29210;SDS011;16250;49.932;10.980;2024-01-07T03:20:58;14.15;;;11.63;;
29210;SDS011;16250;49.932;10.980;2024-01-07T03:23:23;16.27;;;12.57;;
29210;SDS011;16250;49.932;10.980;2024-01-07T03:25:49;14.55;;;12.65;;
29210;SDS011;16250;49.932;10.980;2024-01-07T03:28:14;15.93;;;12.75;;
29210;SDS011;16250;49.932;10.980;2024-01-07T03:30:40;15.68;;;11.82;;
29210;SDS011;16250;49.932;10.980;2024-01-07T03:33:06;14.93;;;12.88;;
29210;SDS011;16250;49.932;10.980;2024-01-07T03:35:31;15.18;;;12.30;;
29210;SDS011;16250;49.932;10.980;2024-01-07T03:37:56;14.27;;;12.23;;
29210;SDS011;16250;49.932;10.980;2024-01-07T03:40:22;15.10;;;12.27;;
29210;SDS011;16250;49.932;10.980;2024-01-07T03:42:47;16.08;;;12.13;;
29210;SDS011;16250;49.932;10.980;2024-01-07T03:45:13;14.55;;;12.18;;
29210;SDS011;16250;49.932;10.980;2024-01-07T03:47:38;17.25;;;12.98;;
29210;SDS011;16250;49.932;10.980;2024-01-07T03:50:03;15.18;;;12.80;;
29210;SDS011;16250;49.932;10.980;2024-01-07T03:52:29;18.13;;;13.15;;
29210;SDS011;16250;49.932;10.980;2024-01-07T03:54:54;15.23;;;12.68;;
29210;SDS011;16250;49.932;10.980;2024-01-07T03:57:20;15.02;;;12.00;;
29210;SDS011;16250;49.932;10.980;2024-01-07T03:59:46;14.82;;;12.43;;
29210;SDS011;16250;49.932;10.980;2024-01-07T04:02:11;14.80;;;12.23;;
29210;SDS011;16250;49.932;10.980;2024-01-07T04:04:37;15.15;;;12.80;;
29210;SDS011;16250;49.932;10.980;2024-01-07T04:07:02;16.85;;;13.02;;
29210;SDS011;16250;49.932;10.980;2024-01-07T04:09:28;15.70;;;12.82;;
29210;SDS011;16250;49.932;10.980;2024-01-07T04:11:53;15.07;;;13.00;;
29210;SDS011;16250;49.932;10.980;2024-01-07T04:14:18;12.07;;;10.27;;
29210;SDS011;16250;49.932;10.980;2024-01-07T04:16:44;12.15;;;9.68;;
29210;SDS011;16250;49.932;10.980;2024-01-07T04:19:09;10.55;;;9.40;;
29210;SDS011;16250;49.932;10.980;2024-01-07T04:21:34;10.63;;;8.90;;
29210;SDS011;16250;49.932;10.980;2024-01-07T04:24:01;10.15;;;9.13;;
29210;SDS011;16250;49.932;10.980;2024-01-07T04:26:26;10.77;;;9.30;;
29210;SDS011;16250;49.932;10.980;2024-01-07T04:28:51;11.90;;;9.55;;
29210;SDS011;16250;49.932;10.980;2024-01-07T04:31:17;11.02;;;9.70;;
29210;SDS011;16250;49.932;10.980;2024-01-07T04:33:42;12.50;;;10.05;;
29210;SDS011;16250;49.932;10.980;2024-01-07T04:36:08;12.20;;;9.60;;
29210;SDS011;16250;49.932;10.980;2024-01-07T04:38:33;13.85;;;10.23;;
29210;SDS011;16250;49.932;10.980;2024-01-07T04:40:59;14.98;;;10.48;;
29210;SDS011;16250;49.932;10.980;2024-01-07T04:43:24;12.65;;;10.48;;
29210;SDS011;16250;49.932;10.980;2024-01-07T04:45:50;12.75;;;10.73;;
29210;SDS011;16250;49.932;10.980;2024-01-07T04:48:15;13.23;;;10.55;;
29210;SDS011;16250;49.932;10.980;2024-01-07T04:50:41;12.27;;;10.27;;
29210;SDS011;16250;49.932;10.980;2024-01-07T04:53:09;13.25;;;11.07;;
29210;SDS011;16250;49.932;10.980;2024-01-07T04:55:35;13.57;;;10.40;;
29210;SDS011;16250;49.932;10.980;2024-01-07T04:58:01;14.60;;;11.07;;
29210;SDS011;16250;49.932;10.980;2024-01-07T05:00:26;11.35;;;9.85;;
29210;SDS011;16250;49.932;10.980;2024-01-07T05:02:52;12.50;;;10.65;;
29210;SDS011;16250;49.932;10.980;2024-01-07T05:05:17;13.13;;;10.82;;
29210;SDS011;16250;49.932;10.980;2024-01-07T05:07:42;15.38;;;12.23;;
29210;SDS011;16250;49.932;10.980;2024-01-07T05:10:08;14.88;;;11.82;;
29210;SDS011;16250;49.932;10.980;2024-01-07T05:12:33;14.07;;;11.63;;
29210;SDS011;16250;49.932;10.980;2024-01-07T05:14:59;14.50;;;12.07;;
29210;SDS011;16250;49.932;10.980;2024-01-07T05:17:24;15.48;;;12.23;;
29210;SDS011;16250;49.932;10.980;2024-01-07T05:19:50;15.70;;;12.65;;
29210;SDS011;16250;49.932;10.980;2024-01-07T05:22:15;14.50;;;12.85;;
29210;SDS011;16250;49.932;10.980;2024-01-07T05:24:41;14.23;;;11.93;;
29210;SDS011;16250;49.932;10.980;2024-01-07T05:27:06;15.35;;;13.18;;
29210;SDS011;16250;49.932;10.980;2024-01-07T05:29:32;15.68;;;12.40;;
29210;SDS011;16250;49.932;10.980;2024-01-07T05:32:00;15.82;;;12.00;;
29210;SDS011;16250;49.932;10.980;2024-01-07T05:34:27;15.02;;;11.63;;
29210;SDS011;16250;49.932;10.980;2024-01-07T05:36:52;15.20;;;11.90;;
29210;SDS011;16250;49.932;10.980;2024-01-07T05:39:18;15.23;;;12.63;;
29210;SDS011;16250;49.932;10.980;2024-01-07T05:41:43;15.50;;;12.70;;
29210;SDS011;16250;49.932;10.980;2024-01-07T05:44:08;15.52;;;13.13;;
29210;SDS011;16250;49.932;10.980;2024-01-07T05:46:34;15.65;;;13.38;;
29210;SDS011;16250;49.932;10.980;2024-01-07T05:49:03;16.35;;;12.77;;
29210;SDS011;16250;49.932;10.980;2024-01-07T05:51:29;16.60;;;13.73;;
29210;SDS011;16250;49.932;10.980;2024-01-07T05:53:54;17.67;;;14.25;;
29210;SDS011;16250;49.932;10.980;2024-01-07T05:56:19;16.58;;;14.02;;
29210;SDS011;16250;49.932;10.980;2024-01-07T05:58:45;16.05;;;13.70;;
29210;SDS011;16250;49.932;10.980;2024-01-07T06:01:10;16.90;;;13.93;;
29210;SDS011;16250;49.932;10.980;2024-01-07T06:03:35;17.70;;;14.25;;
29210;SDS011;16250;49.932;10.980;2024-01-07T06:06:01;17.63;;;14.55;;
29210;SDS011;16250;49.932;10.980;2024-01-07T06:08:26;17.30;;;13.80;;
29210;SDS011;16250;49.932;10.980;2024-01-07T06:10:52;17.13;;;13.82;;
29210;SDS011;16250;49.932;10.980;2024-01-07T06:13:17;20.48;;;14.75;;
29210;SDS011;16250;49.932;10.980;2024-01-07T06:15:43;18.65;;;13.80;;
29210;SDS011;16250;49.932;10.980;2024-01-07T06:18:08;15.77;;;13.32;;
29210;SDS011;16250;49.932;10.980;2024-01-07T06:20:34;16.00;;;13.40;;
29210;SDS011;16250;49.932;10.980;2024-01-07T06:22:59;16.77;;;13.40;;
29210;SDS011;16250;49.932;10.980;2024-01-07T06:25:24;16.48;;;13.90;;
29210;SDS011;16250;49.932;10.980;2024-01-07T06:27:51;18.30;;;14.80;;
29210;SDS011;16250;49.932;10.980;2024-01-07T06:30:16;15.93;;;13.00;;
29210;SDS011;16250;49.932;10.980;2024-01-07T06:32:44;19.65;;;15.13;;
29210;SDS011;16250;49.932;10.980;2024-01-07T06:35:09;17.85;;;15.55;;
29210;SDS011;16250;49.932;10.980;2024-01-07T06:37:34;18.65;;;14.60;;
29210;SDS011;16250;49.932;10.980;2024-01-07T06:40:00;16.92;;;14.32;;
29210;SDS011;16250;49.932;10.980;2024-01-07T06:42:25;17.55;;;14.60;;
29210;SDS011;16250;49.932;10.980;2024-01-07T06:44:51;17.70;;;14.25;;
29210;SDS011;16250;49.932;10.980;2024-01-07T06:47:17;15.02;;;13.43;;
29210;SDS011;16250;49.932;10.980;2024-01-07T06:49:42;15.85;;;14.10;;
29210;SDS011;16250;49.932;10.980;2024-01-07T06:52:08;16.48;;;13.52;;
29210;SDS011;16250;49.932;10.980;2024-01-07T06:54:33;14.93;;;12.73;;
29210;SDS011;16250;49.932;10.980;2024-01-07T06:56:58;16.15;;;13.75;;
29210;SDS011;16250;49.932;10.980;2024-01-07T06:59:24;15.93;;;13.55;;
29210;SDS011;16250;49.932;10.980;2024-01-07T07:01:49;15.32;;;13.30;;
29210;SDS011;16250;49.932;10.980;2024-01-07T07:04:14;16.42;;;14.35;;
29210;SDS011;16250;49.932;10.980;2024-01-07T07:06:40;14.38;;;12.82;;
29210;SDS011;16250;49.932;10.980;2024-01-07T07:09:05;16.83;;;14.52;;
29210;SDS011;16250;49.932;10.980;2024-01-07T07:11:31;16.35;;;14.07;;
29210;SDS011;16250;49.932;10.980;2024-01-07T07:13:57;15.13;;;13.52;;
29210;SDS011;16250;49.932;10.980;2024-01-07T07:16:22;15.48;;;13.65;;
29210;SDS011;16250;49.932;10.980;2024-01-07T07:18:48;15.32;;;13.73;;
29210;SDS011;16250;49.932;10.980;2024-01-07T07:21:13;17.65;;;13.45;;
29210;SDS011;16250;49.932;10.980;2024-01-07T07:23:38;15.35;;;13.68;;
29210;SDS011;16250;49.932;10.980;2024-01-07T07:26:04;15.20;;;13.55;;
29210;SDS011;16250;49.932;10.980;2024-01-07T07:28:29;15.73;;;14.13;;
29210;SDS011;16250;49.932;10.980;2024-01-07T07:30:55;14.75;;;13.15;;
29210;SDS011;16250;49.932;10.980;2024-01-07T07:33:20;14.00;;;12.50;;
29210;SDS011;16250;49.932;10.980;2024-01-07T07:35:46;15.13;;;12.93;;
29210;SDS011;16250;49.932;10.980;2024-01-07T07:38:11;15.00;;;12.93;;
29210;SDS011;16250;49.932;10.980;2024-01-07T07:40:37;13.82;;;11.88;;
29210;SDS011;16250;49.932;10.980;2024-01-07T07:43:02;14.48;;;12.93;;
29210;SDS011;16250;49.932;10.980;2024-01-07T07:45:28;19.92;;;15.98;;
29210;SDS011;16250;49.932;10.980;2024-01-07T07:47:53;27.50;;;20.60;;
29210;SDS011;16250;49.932;10.980;2024-01-07T07:50:18;29.73;;;21.60;;
29210;SDS011;16250;49.932;10.980;2024-01-07T07:52:44;21.90;;;17.35;;
29210;SDS011;16250;49.932;10.980;2024-01-07T07:55:09;20.85;;;16.88;;
29210;SDS011;16250;49.932;10.980;2024-01-07T07:57:35;25.10;;;19.38;;
29210;SDS011;16250;49.932;10.980;2024-01-07T08:00:01;22.98;;;17.55;;
29210;SDS011;16250;49.932;10.980;2024-01-07T08:02:27;26.65;;;21.00;;
29210;SDS011;16250;49.932;10.980;2024-01-07T08:04:52;20.55;;;17.55;;
29210;SDS011;16250;49.932;10.980;2024-01-07T08:07:17;21.05;;;18.45;;
29210;SDS011;16250;49.932;10.980;2024-01-07T08:09:43;20.02;;;16.98;;
29210;SDS011;16250;49.932;10.980;2024-01-07T08:12:08;19.60;;;15.88;;
29210;SDS011;16250;49.932;10.980;2024-01-07T08:14:35;23.38;;;18.55;;
29210;SDS011;16250;49.932;10.980;2024-01-07T08:17:00;23.10;;;19.20;;
29210;SDS011;16250;49.932;10.980;2024-01-07T08:19:26;20.52;;;17.30;;
29210;SDS011;16250;49.932;10.980;2024-01-07T08:21:51;20.58;;;16.90;;
29210;SDS011;16250;49.932;10.980;2024-01-07T08:24:17;21.65;;;17.80;;
29210;SDS011;16250;49.932;10.980;2024-01-07T08:26:43;21.85;;;18.25;;
29210;SDS011;16250;49.932;10.980;2024-01-07T08:29:08;20.65;;;17.20;;
29210;SDS011;16250;49.932;10.980;2024-01-07T08:31:34;22.20;;;19.15;;
29210;SDS011;16250;49.932;10.980;2024-01-07T08:33:59;21.80;;;18.95;;
29210;SDS011;16250;49.932;10.980;2024-01-07T08:36:25;22.75;;;19.23;;
29210;SDS011;16250;49.932;10.980;2024-01-07T08:38:50;22.83;;;19.83;;
29210;SDS011;16250;49.932;10.980;2024-01-07T08:41:16;23.30;;;20.00;;
29210;SDS011;16250;49.932;10.980;2024-01-07T08:43:41;23.05;;;20.55;;
29210;SDS011;16250;49.932;10.980;2024-01-07T08:46:07;21.58;;;18.75;;
29210;SDS011;16250;49.932;10.980;2024-01-07T08:48:32;28.52;;;21.70;;
29210;SDS011;16250;49.932;10.980;2024-01-07T08:50:58;26.80;;;20.75;;
29210;SDS011;16250;49.932;10.980;2024-01-07T08:53:23;20.95;;;18.13;;
29210;SDS011;16250;49.932;10.980;2024-01-07T08:55:48;22.45;;;18.60;;
29210;SDS011;16250;49.932;10.980;2024-01-07T08:58:16;21.00;;;18.13;;
29210;SDS011;16250;49.932;10.980;2024-01-07T09:00:42;21.38;;;17.88;;
29210;SDS011;16250;49.932;10.980;2024-01-07T09:03:08;20.55;;;18.30;;
29210;SDS011;16250;49.932;10.980;2024-01-07T09:05:34;21.05;;;18.08;;
29210;SDS011;16250;49.932;10.980;2024-01-07T09:07:59;23.27;;;18.85;;
29210;SDS011;16250;49.932;10.980;2024-01-07T09:10:26;23.73;;;20.38;;
29210;SDS011;16250;49.932;10.980;2024-01-07T09:12:51;22.42;;;19.85;;
29210;SDS011;16250;49.932;10.980;2024-01-07T09:15:18;22.95;;;19.00;;
29210;SDS011;16250;49.932;10.980;2024-01-07T09:17:45;22.27;;;19.23;;
29210;SDS011;16250;49.932;10.980;2024-01-07T09:20:10;23.13;;;19.23;;
29210;SDS011;16250;49.932;10.980;2024-01-07T09:22:36;21.52;;;19.08;;
29210;SDS011;16250;49.932;10.980;2024-01-07T09:25:05;24.08;;;19.77;;
29210;SDS011;16250;49.932;10.980;2024-01-07T09:27:31;24.48;;;20.60;;
29210;SDS011;16250;49.932;10.980;2024-01-07T09:29:58;23.25;;;19.85;;
29210;SDS011;16250;49.932;10.980;2024-01-07T09:32:23;24.38;;;19.83;;
29210;SDS011;16250;49.932;10.980;2024-01-07T09:34:49;23.38;;;19.98;;
29210;SDS011;16250;49.932;10.980;2024-01-07T09:37:14;22.27;;;19.02;;
29210;SDS011;16250;49.932;10.980;2024-01-07T09:39:40;23.27;;;19.33;;
29210;SDS011;16250;49.932;10.980;2024-01-07T09:42:10;23.00;;;18.95;;
29210;SDS011;16250;49.932;10.980;2024-01-07T09:44:37;23.08;;;18.95;;
29210;SDS011;16250;49.932;10.980;2024-01-07T09:47:04;24.02;;;19.45;;
29210;SDS011;16250;49.932;10.980;2024-01-07T09:49:30;23.27;;;19.05;;
29210;SDS011;16250;49.932;10.980;2024-01-07T09:51:58;24.85;;;19.67;;
29210;SDS011;16250;49.932;10.980;2024-01-07T09:54:25;20.92;;;18.55;;
29210;SDS011;16250;49.932;10.980;2024-01-07T09:56:55;21.77;;;18.85;;
29210;SDS011;16250;49.932;10.980;2024-01-07T09:59:25;22.92;;;19.30;;
29210;SDS011;16250;49.932;10.980;2024-01-07T10:01:56;22.73;;;18.48;;
29210;SDS011;16250;49.932;10.980;2024-01-07T10:04:22;21.83;;;18.38;;
29210;SDS011;16250;49.932;10.980;2024-01-07T10:06:50;22.60;;;17.88;;
29210;SDS011;16250;49.932;10.980;2024-01-07T10:09:17;20.10;;;17.88;;
29210;SDS011;16250;49.932;10.980;2024-01-07T10:11:44;20.60;;;18.17;;
29210;SDS011;16250;49.932;10.980;2024-01-07T10:14:09;21.98;;;17.40;;
29210;SDS011;16250;49.932;10.980;2024-01-07T10:16:35;20.13;;;17.02;;
29210;SDS011;16250;49.932;10.980;2024-01-07T10:19:00;23.65;;;19.33;;
29210;SDS011;16250;49.932;10.980;2024-01-07T10:21:25;21.08;;;17.58;;
29210;SDS011;16250;49.932;10.980;2024-01-07T10:23:54;18.45;;;15.60;;
29210;SDS011;16250;49.932;10.980;2024-01-07T10:26:32;20.00;;;17.73;;
29210;SDS011;16250;49.932;10.980;2024-01-07T10:28:57;18.92;;;15.82;;
29210;SDS011;16250;49.932;10.980;2024-01-07T10:31:23;19.77;;;17.27;;
29210;SDS011;16250;49.932;10.980;2024-01-07T10:33:49;18.75;;;15.98;;
29210;SDS011;16250;49.932;10.980;2024-01-07T10:36:14;20.67;;;15.55;;
29210;SDS011;16250;49.932;10.980;2024-01-07T10:38:41;19.65;;;16.65;;
29210;SDS011;16250;49.932;10.980;2024-01-07T10:41:07;18.92;;;15.98;;
29210;SDS011;16250;49.932;10.980;2024-01-07T10:43:34;17.63;;;15.68;;
29210;SDS011;16250;49.932;10.980;2024-01-07T10:46:01;20.23;;;15.25;;
29210;SDS011;16250;49.932;10.980;2024-01-07T10:48:30;15.93;;;13.98;;
29210;SDS011;16250;49.932;10.980;2024-01-07T10:50:57;19.88;;;14.07;;
29210;SDS011;16250;49.932;10.980;2024-01-07T10:53:24;15.90;;;13.45;;
29210;SDS011;16250;49.932;10.980;2024-01-07T10:55:54;15.85;;;13.25;;
29210;SDS011;16250;49.932;10.980;2024-01-07T10:58:30;16.88;;;13.07;;
29210;SDS011;16250;49.932;10.980;2024-01-07T11:00:58;18.27;;;14.18;;
29210;SDS011;16250;49.932;10.980;2024-01-07T11:03:31;17.10;;;13.73;;
29210;SDS011;16250;49.932;10.980;2024-01-07T11:06:03;16.10;;;13.63;;
29210;SDS011;16250;49.932;10.980;2024-01-07T11:11:31;13.88;;;12.02;;
29210;SDS011;16250;49.932;10.980;2024-01-07T11:14:01;16.80;;;12.85;;
29210;SDS011;16250;49.932;10.980;2024-01-07T11:16:42;15.05;;;13.05;;
29210;SDS011;16250;49.932;10.980;2024-01-07T11:19:14;14.57;;;11.80;;
29210;SDS011;16250;49.932;10.980;2024-01-07T11:21:39;15.23;;;12.93;;
29210;SDS011;16250;49.932;10.980;2024-01-07T11:24:05;15.63;;;13.10;;
29210;SDS011;16250;49.932;10.980;2024-01-07T11:26:30;18.23;;;14.50;;
29210;SDS011;16250;49.932;10.980;2024-01-07T11:28:56;17.17;;;14.35;;
29210;SDS011;16250;49.932;10.980;2024-01-07T11:34:13;13.57;;;11.52;;
29210;SDS011;16250;49.932;10.980;2024-01-07T11:37:11;14.45;;;12.73;;
29210;SDS011;16250;49.932;10.980;2024-01-07T11:39:38;22.55;;;17.08;;
29210;SDS011;16250;49.932;10.980;2024-01-07T11:42:04;13.35;;;11.48;;
29210;SDS011;16250;49.932;10.980;2024-01-07T11:44:29;19.40;;;13.98;;
29210;SDS011;16250;49.932;10.980;2024-01-07T11:46:55;22.92;;;15.73;;
29210;SDS011;16250;49.932;10.980;2024-01-07T11:49:21;17.80;;;12.18;;
29210;SDS011;16250;49.932;10.980;2024-01-07T11:51:46;17.73;;;12.80;;
29210;SDS011;16250;49.932;10.980;2024-01-07T11:54:12;13.63;;;10.60;;
29210;SDS011;16250;49.932;10.980;2024-01-07T11:56:37;15.52;;;12.10;;
29210;SDS011;16250;49.932;10.980;2024-01-07T11:59:03;13.15;;;9.57;;
29210;SDS011;16250;49.932;10.980;2024-01-07T12:01:28;10.52;;;8.95;;
29210;SDS011;16250;49.932;10.980;2024-01-07T12:03:54;14.05;;;9.95;;
29210;SDS011;16250;49.932;10.980;2024-01-07T12:06:19;11.70;;;8.52;;
29210;SDS011;16250;49.932;10.980;2024-01-07T12:08:45;9.43;;;7.70;;
29210;SDS011;16250;49.932;10.980;2024-01-07T12:11:11;12.32;;;8.00;;
29210;SDS011;16250;49.932;10.980;2024-01-07T12:13:37;10.25;;;8.88;;
29210;SDS011;16250;49.932;10.980;2024-01-07T12:16:03;9.13;;;7.95;;
29210;SDS011;16250;49.932;10.980;2024-01-07T12:18:29;10.82;;;8.52;;
29210;SDS011;16250;49.932;10.980;2024-01-07T12:20:58;10.30;;;8.23;;
29210;SDS011;16250;49.932;10.980;2024-01-07T12:23:25;10.10;;;7.95;;
29210;SDS011;16250;49.932;10.980;2024-01-07T12:25:51;8.48;;;7.28;;
29210;SDS011;16250;49.932;10.980;2024-01-07T12:28:18;9.93;;;7.68;;
29210;SDS011;16250;49.932;10.980;2024-01-07T12:30:49;8.25;;;7.00;;
29210;SDS011;16250;49.932;10.980;2024-01-07T12:33:21;8.45;;;6.78;;
29210;SDS011;16250;49.932;10.980;2024-01-07T12:35:47;8.02;;;7.22;;
29210;SDS011;16250;49.932;10.980;2024-01-07T12:38:12;8.10;;;6.80;;
29210;SDS011;16250;49.932;10.980;2024-01-07T12:40:38;7.50;;;6.25;;
29210;SDS011;16250;49.932;10.980;2024-01-07T12:43:04;6.32;;;5.70;;
29210;SDS011;16250;49.932;10.980;2024-01-07T12:45:32;6.60;;;6.00;;
29210;SDS011;16250;49.932;10.980;2024-01-07T12:47:58;7.32;;;5.97;;
29210;SDS011;16250;49.932;10.980;2024-01-07T12:50:26;6.47;;;5.88;;
29210;SDS011;16250;49.932;10.980;2024-01-07T12:52:54;6.00;;;5.43;;
29210;SDS011;16250;49.932;10.980;2024-01-07T12:55:20;6.55;;;5.80;;
29210;SDS011;16250;49.932;10.980;2024-01-07T12:57:45;6.18;;;5.60;;
29210;SDS011;16250;49.932;10.980;2024-01-07T13:00:17;6.57;;;5.97;;
29210;SDS011;16250;49.932;10.980;2024-01-07T13:02:43;7.32;;;6.07;;
29210;SDS011;16250;49.932;10.980;2024-01-07T13:05:08;8.35;;;7.30;;
29210;SDS011;16250;49.932;10.980;2024-01-07T13:07:34;15.15;;;9.98;;
29210;SDS011;16250;49.932;10.980;2024-01-07T13:10:00;9.45;;;7.63;;
29210;SDS011;16250;49.932;10.980;2024-01-07T13:12:26;9.90;;;8.27;;
29210;SDS011;16250;49.932;10.980;2024-01-07T13:14:51;12.02;;;8.88;;
29210;SDS011;16250;49.932;10.980;2024-01-07T13:17:18;12.40;;;9.82;;
29210;SDS011;16250;49.932;10.980;2024-01-07T13:19:43;9.55;;;8.52;;
29210;SDS011;16250;49.932;10.980;2024-01-07T13:22:09;9.63;;;8.07;;
29210;SDS011;16250;49.932;10.980;2024-01-07T13:24:35;9.10;;;8.10;;
29210;SDS011;16250;49.932;10.980;2024-01-07T13:27:00;9.68;;;8.68;;
29210;SDS011;16250;49.932;10.980;2024-01-07T13:29:26;9.77;;;8.77;;
29210;SDS011;16250;49.932;10.980;2024-01-07T13:31:51;9.10;;;8.23;;
29210;SDS011;16250;49.932;10.980;2024-01-07T13:34:19;12.60;;;11.13;;
29210;SDS011;16250;49.932;10.980;2024-01-07T13:36:44;12.57;;;10.80;;
29210;SDS011;16250;49.932;10.980;2024-01-07T13:39:10;9.82;;;8.82;;
29210;SDS011;16250;49.932;10.980;2024-01-07T13:41:35;9.63;;;8.63;;
29210;SDS011;16250;49.932;10.980;2024-01-07T13:44:01;9.70;;;8.70;;
29210;SDS011;16250;49.932;10.980;2024-01-07T13:46:28;10.73;;;9.00;;
29210;SDS011;16250;49.932;10.980;2024-01-07T13:48:53;11.70;;;10.20;;
29210;SDS011;16250;49.932;10.980;2024-01-07T13:51:19;11.30;;;9.43;;
29210;SDS011;16250;49.932;10.980;2024-01-07T13:53:44;11.90;;;9.23;;
29210;SDS011;16250;49.932;10.980;2024-01-07T13:56:11;11.73;;;9.13;;
29210;SDS011;16250;49.932;10.980;2024-01-07T13:58:37;10.82;;;9.40;;
29210;SDS011;16250;49.932;10.980;2024-01-07T14:01:02;9.93;;;8.93;;
29210;SDS011;16250;49.932;10.980;2024-01-07T14:03:28;10.70;;;9.60;;
29210;SDS011;16250;49.932;10.980;2024-01-07T14:05:55;10.27;;;9.20;;
29210;SDS011;16250;49.932;10.980;2024-01-07T14:08:20;9.60;;;8.60;;
29210;SDS011;16250;49.932;10.980;2024-01-07T14:10:46;9.48;;;8.57;;
29210;SDS011;16250;49.932;10.980;2024-01-07T14:13:11;9.35;;;8.45;;